createdAt,value
2023-11-14T00:01:14.496Z,21.73
2023-11-14T00:03:44.500Z,21.75
2023-11-14T00:06:14.907Z,21.82
2023-11-14T00:08:45.312Z,21.93
2023-11-14T00:11:15.802Z,21.95
2023-11-14T00:13:46.059Z,21.97
2023-11-14T00:16:22.828Z,21.96
2023-11-14T00:18:53.811Z,21.94
2023-11-14T00:21:24.211Z,21.92
2023-11-14T00:23:54.472Z,21.92
2023-11-14T00:26:24.873Z,21.90
2023-11-14T00:29:00.968Z,21.89
2023-11-14T00:31:32.011Z,21.89
2023-11-14T00:34:02.284Z,21.87
2023-11-14T00:36:32.970Z,21.85
2023-11-14T00:39:03.115Z,21.90
2023-11-14T00:41:33.359Z,22.00
2023-11-14T00:44:03.579Z,21.93
2023-11-14T00:46:35.221Z,21.89
2023-11-14T00:49:06.012Z,21.76
2023-11-14T00:51:37.081Z,21.67
2023-11-14T00:54:08.236Z,21.64
2023-11-14T00:56:38.645Z,21.62
2023-11-14T00:59:11.277Z,21.63
2023-11-14T01:01:41.682Z,21.60
2023-11-14T01:04:17.565Z,21.58
2023-11-14T01:06:48.060Z,21.56
2023-11-14T01:09:18.052Z,21.52
2023-11-14T01:11:49.064Z,21.71
2023-11-14T01:14:19.271Z,21.74
2023-11-14T01:16:49.882Z,21.76
2023-11-14T01:19:19.962Z,21.75
2023-11-14T01:21:52.840Z,21.74
2023-11-14T01:24:23.224Z,21.75
2023-11-14T01:26:53.393Z,21.69
2023-11-14T01:29:23.707Z,21.56
2023-11-14T01:31:55.767Z,21.52
2023-11-14T01:34:41.797Z,21.47
2023-11-14T01:37:12.160Z,21.46
2023-11-14T01:39:47.455Z,21.44
2023-11-14T01:42:17.778Z,21.42
2023-11-14T01:44:47.678Z,21.41
2023-11-14T01:47:19.906Z,21.38
2023-11-14T01:49:50.316Z,21.33
2023-11-14T01:52:21.238Z,21.40
2023-11-14T01:54:51.523Z,21.54
2023-11-14T01:57:22.105Z,21.54
2023-11-14T01:59:56.650Z,21.49
2023-11-14T02:02:27.161Z,21.48
2023-11-14T02:04:59.267Z,21.47
2023-11-14T02:07:29.125Z,21.49
2023-11-14T02:09:59.269Z,21.50
2023-11-14T02:12:29.277Z,21.46
2023-11-14T02:15:00.447Z,21.44
2023-11-14T02:17:30.505Z,21.45
2023-11-14T02:20:01.851Z,21.46
2023-11-14T02:22:32.018Z,21.44
2023-11-14T02:25:07.010Z,21.42
2023-11-14T02:27:38.844Z,21.34
2023-11-14T02:30:10.051Z,21.21
2023-11-14T02:32:40.342Z,21.27
2023-11-14T02:35:13.011Z,21.17
2023-11-14T02:37:42.881Z,21.12
2023-11-14T02:40:14.172Z,21.01
2023-11-14T02:42:47.845Z,21.04
2023-11-14T02:45:18.431Z,21.10
2023-11-14T02:47:51.444Z,21.05
2023-11-14T02:50:36.750Z,21.01
2023-11-14T02:53:10.830Z,20.93
2023-11-14T02:55:45.948Z,20.95
2023-11-14T02:58:16.822Z,21.03
2023-11-14T03:00:50.712Z,21.03
2023-11-14T03:03:21.992Z,21.05
2023-11-14T03:05:52.792Z,21.11
2023-11-14T03:08:23.775Z,21.13
2023-11-14T03:10:54.428Z,21.17
2023-11-14T03:13:24.449Z,21.08
2023-11-14T03:15:55.186Z,21.01
2023-11-14T03:18:25.043Z,21.00
2023-11-14T03:20:54.924Z,21.07
2023-11-14T03:23:25.139Z,21.08
2023-11-14T03:25:55.146Z,21.04
2023-11-14T03:28:25.723Z,21.04
2023-11-14T03:30:55.890Z,21.07
2023-11-14T03:33:27.514Z,21.07
2023-11-14T03:35:57.633Z,21.12
2023-11-14T03:38:30.029Z,21.13
2023-11-14T03:41:01.009Z,21.23
2023-11-14T03:43:31.376Z,21.26
2023-11-14T03:46:04.926Z,21.36
2023-11-14T03:48:35.364Z,21.39
2023-11-14T03:51:13.860Z,21.38
2023-11-14T03:53:46.570Z,21.39
2023-11-14T03:56:17.485Z,21.34
2023-11-14T03:58:49.131Z,21.35
2023-11-14T04:01:19.907Z,21.49
2023-11-14T04:03:50.479Z,21.58
2023-11-14T04:06:20.755Z,21.62
2023-11-14T04:08:54.128Z,21.65
2023-11-14T04:11:24.162Z,21.59
2023-11-14T04:13:54.004Z,21.63
2023-11-14T04:16:24.553Z,21.56
2023-11-14T04:18:54.538Z,21.49
2023-11-14T04:21:24.938Z,21.56
2023-11-14T04:23:57.276Z,21.55
2023-11-14T04:26:29.236Z,21.48
2023-11-14T04:29:00.484Z,21.36
2023-11-14T04:31:31.493Z,21.26
2023-11-14T04:34:01.383Z,21.24
2023-11-14T04:36:37.037Z,21.25
2023-11-14T04:39:07.048Z,21.30
2023-11-14T04:41:38.484Z,21.35
2023-11-14T04:44:08.575Z,21.30
2023-11-14T04:46:39.058Z,21.23
2023-11-14T04:49:09.513Z,21.17
2023-11-14T04:51:41.074Z,21.23
2023-11-14T04:54:11.139Z,21.24
2023-11-14T04:56:41.491Z,21.30
2023-11-14T04:59:11.470Z,21.31
2023-11-14T05:01:42.401Z,21.41
2023-11-14T05:04:13.586Z,21.23
2023-11-14T05:06:44.099Z,21.14
2023-11-14T05:09:15.737Z,21.11
2023-11-14T05:11:46.060Z,21.09
2023-11-14T05:14:16.022Z,21.21
2023-11-14T05:16:46.604Z,21.28
2023-11-14T05:19:16.649Z,21.31
2023-11-14T05:21:47.307Z,21.38
2023-11-14T05:24:17.356Z,21.39
2023-11-14T05:26:47.272Z,21.40
2023-11-14T05:29:18.494Z,21.36
2023-11-14T05:31:48.532Z,21.32
2023-11-14T05:34:18.768Z,21.28
2023-11-14T05:36:48.751Z,21.25
2023-11-14T05:39:19.092Z,21.31
2023-11-14T05:41:49.594Z,21.37
2023-11-14T05:44:20.098Z,21.38
2023-11-14T05:46:50.137Z,21.40
2023-11-14T05:49:20.379Z,21.51
2023-11-14T05:51:50.561Z,21.53
2023-11-14T05:54:20.852Z,21.47
2023-11-14T05:56:50.854Z,21.33
2023-11-14T05:59:21.148Z,21.49
2023-11-14T06:01:51.546Z,21.46
2023-11-14T06:04:27.038Z,21.47
2023-11-14T06:06:58.631Z,21.46
2023-11-14T06:09:28.889Z,21.50
2023-11-14T06:11:59.115Z,21.53
2023-11-14T06:14:29.389Z,21.42
2023-11-14T06:17:01.102Z,21.41
2023-11-14T06:19:32.074Z,21.36
2023-11-14T06:22:02.223Z,21.31
2023-11-14T06:24:32.562Z,21.26
2023-11-14T06:27:05.177Z,21.26
2023-11-14T06:29:35.372Z,21.38
2023-11-14T06:32:05.328Z,21.50
2023-11-14T06:34:35.595Z,21.47
2023-11-14T06:37:05.485Z,21.41
2023-11-14T06:39:35.769Z,21.39
2023-11-14T06:42:06.072Z,21.35
2023-11-14T06:44:38.096Z,21.26
2023-11-14T06:47:08.343Z,21.35
2023-11-14T06:49:38.751Z,21.39
2023-11-14T06:52:19.596Z,21.50
2023-11-14T06:54:50.283Z,21.43
2023-11-14T06:57:22.620Z,21.34
2023-11-14T06:59:52.874Z,21.19
2023-11-14T07:02:24.126Z,21.15
2023-11-14T07:04:54.558Z,21.12
2023-11-14T07:07:24.547Z,21.09
2023-11-14T07:09:54.890Z,21.09
2023-11-14T07:12:24.907Z,21.11
2023-11-14T07:14:55.151Z,21.20
2023-11-14T07:17:25.738Z,21.14
2023-11-14T07:19:56.481Z,21.17
2023-11-14T07:22:26.715Z,21.12
2023-11-14T07:24:56.949Z,21.13
2023-11-14T07:27:27.880Z,21.00
2023-11-14T07:29:58.084Z,21.03
2023-11-14T07:32:28.151Z,21.12
2023-11-14T07:34:58.822Z,21.02
2023-11-14T07:37:37.780Z,20.99
2023-11-14T07:40:08.917Z,21.09
2023-11-14T07:42:39.165Z,21.12
2023-11-14T07:45:12.732Z,21.18
2023-11-14T07:47:45.675Z,21.06
2023-11-14T07:50:16.327Z,21.16
2023-11-14T07:52:46.335Z,21.21
2023-11-14T07:55:18.370Z,21.21
2023-11-14T07:57:48.650Z,21.26
2023-11-14T08:00:20.028Z,21.09
2023-11-14T08:02:50.321Z,21.08
2023-11-14T08:05:20.708Z,21.09
2023-11-14T08:07:50.699Z,21.14
2023-11-14T08:10:21.513Z,21.15
2023-11-14T08:12:51.538Z,21.10
2023-11-14T08:15:21.881Z,21.09
2023-11-14T08:17:52.406Z,21.26
2023-11-14T08:20:25.888Z,21.14
2023-11-14T08:22:55.906Z,21.21
2023-11-14T08:25:25.812Z,21.31
2023-11-14T08:27:57.644Z,21.35
2023-11-14T08:30:30.430Z,21.25
2023-11-14T08:33:09.942Z,21.11
2023-11-14T08:35:40.191Z,21.11
2023-11-14T08:38:17.283Z,21.03
2023-11-14T08:40:51.238Z,21.00
2023-11-14T08:43:22.444Z,21.11
2023-11-14T08:45:52.427Z,21.19
2023-11-14T08:48:23.754Z,21.28
2023-11-14T08:50:55.153Z,21.40
2023-11-14T08:53:26.058Z,21.43
2023-11-14T08:55:56.305Z,21.55
2023-11-14T08:58:27.772Z,21.48
2023-11-14T09:00:59.955Z,21.35
2023-11-14T09:03:30.922Z,21.33
2023-11-14T09:06:00.878Z,21.30
2023-11-14T09:08:30.852Z,21.20
2023-11-14T09:11:01.420Z,21.22
2023-11-14T09:13:31.439Z,21.18
2023-11-14T09:16:03.869Z,21.11
2023-11-14T09:18:35.806Z,21.18
2023-11-14T09:21:06.475Z,21.28
2023-11-14T09:23:36.644Z,21.35
2023-11-14T09:26:09.381Z,21.36
2023-11-14T09:28:39.832Z,21.17
2023-11-14T09:31:11.062Z,21.26
2023-11-14T09:33:41.233Z,21.24
2023-11-14T09:36:11.805Z,21.36
2023-11-14T09:38:41.853Z,21.45
2023-11-14T09:41:15.062Z,21.44
2023-11-14T09:43:48.814Z,21.45
2023-11-14T09:46:19.796Z,21.39
2023-11-14T09:48:50.000Z,21.50
2023-11-14T09:51:21.906Z,21.58
2023-11-14T09:53:57.547Z,21.61
2023-11-14T09:56:28.543Z,21.71
2023-11-14T09:58:59.967Z,21.60
2023-11-14T10:01:30.506Z,21.58
2023-11-14T10:04:01.847Z,21.56
2023-11-14T10:06:32.240Z,21.60
2023-11-14T10:09:05.158Z,21.61
2023-11-14T10:12:12.035Z,21.59
2023-11-14T10:14:46.776Z,21.54
2023-11-14T10:17:20.428Z,21.57
2023-11-14T10:20:07.221Z,21.57
2023-11-14T10:22:37.954Z,21.60
2023-11-14T10:25:08.135Z,21.66
2023-11-14T10:27:39.235Z,21.72
2023-11-14T10:30:10.029Z,21.73
2023-11-14T10:32:40.329Z,21.71
2023-11-14T10:35:19.702Z,21.80
2023-11-14T10:37:50.059Z,21.86
2023-11-14T10:40:20.102Z,21.95
2023-11-14T10:42:56.381Z,21.76
2023-11-14T10:45:26.355Z,21.68
2023-11-14T10:47:56.303Z,21.73
2023-11-14T10:50:35.348Z,21.96
2023-11-14T10:53:06.293Z,22.04
2023-11-14T10:55:37.372Z,22.06
2023-11-14T10:58:09.228Z,22.09
2023-11-14T11:00:40.139Z,22.18
2023-11-14T11:03:11.207Z,22.23
2023-11-14T11:05:42.575Z,22.26
2023-11-14T11:08:15.908Z,22.36
2023-11-14T11:10:47.057Z,22.49
2023-11-14T11:13:23.777Z,22.65
2023-11-14T11:15:59.332Z,22.60
2023-11-14T11:18:40.719Z,22.71
2023-11-14T11:21:11.268Z,22.82
2023-11-14T11:24:12.451Z,23.08
2023-11-14T11:27:13.701Z,23.23
2023-11-14T11:29:52.613Z,23.20
2023-11-14T11:32:38.199Z,23.39
2023-11-14T11:35:23.647Z,23.47
2023-11-14T11:37:57.127Z,23.15
2023-11-14T11:40:30.251Z,23.03
2023-11-14T11:43:12.922Z,23.06
2023-11-14T11:45:43.887Z,22.99
2023-11-14T11:48:34.691Z,23.01
2023-11-14T11:51:28.758Z,23.21
2023-11-14T11:54:00.288Z,23.25
2023-11-14T11:56:39.343Z,23.19
2023-11-14T11:59:10.061Z,23.43
2023-11-14T12:01:50.684Z,23.51
2023-11-14T12:04:22.211Z,23.48
2023-11-14T12:06:52.562Z,23.54
2023-11-14T12:09:22.667Z,23.58
2023-11-14T12:11:54.661Z,23.70
2023-11-14T12:14:25.273Z,23.63
2023-11-14T12:16:55.754Z,23.79
2023-11-14T12:19:26.139Z,23.81
2023-11-14T12:21:57.221Z,23.75
2023-11-14T12:24:27.495Z,23.65
2023-11-14T12:26:59.748Z,23.55
2023-11-14T12:29:30.908Z,23.55
2023-11-14T12:32:01.288Z,23.60
2023-11-14T12:34:33.162Z,23.54
2023-11-14T12:37:19.325Z,23.70
2023-11-14T12:40:24.725Z,23.66
2023-11-14T12:42:54.983Z,23.58
2023-11-14T12:45:25.403Z,23.65
2023-11-14T12:47:57.694Z,23.55
2023-11-14T12:50:27.854Z,23.35
2023-11-14T12:53:00.028Z,23.19
2023-11-14T12:55:30.411Z,23.27
2023-11-14T12:58:01.122Z,23.36
2023-11-14T13:00:31.862Z,23.39
2023-11-14T13:03:02.287Z,23.44
2023-11-14T13:05:32.863Z,23.40
2023-11-14T13:08:03.277Z,23.50
2023-11-14T13:10:33.858Z,23.43
2023-11-14T13:13:04.272Z,23.42
2023-11-14T13:15:35.153Z,23.50
2023-11-14T13:18:06.285Z,23.56
2023-11-14T13:20:36.459Z,23.66
2023-11-14T13:23:07.100Z,23.81
2023-11-14T13:25:37.224Z,23.79
2023-11-14T13:28:07.534Z,23.82
2023-11-14T13:30:38.380Z,23.94
2023-11-14T13:33:08.954Z,24.24
2023-11-14T13:35:39.724Z,24.33
2023-11-14T13:38:10.325Z,24.59
2023-11-14T13:40:45.050Z,24.77
2023-11-14T13:43:19.355Z,25.05
2023-11-14T13:46:20.648Z,25.10
2023-11-14T13:48:57.971Z,25.18
2023-11-14T13:51:28.198Z,25.25
2023-11-14T13:53:58.435Z,25.24
2023-11-14T13:56:28.547Z,25.19
2023-11-14T13:59:00.171Z,25.32
2023-11-14T14:01:36.826Z,25.48
2023-11-14T14:04:08.737Z,25.60
2023-11-14T14:06:38.718Z,25.86
2023-11-14T14:09:11.888Z,25.77
2023-11-14T14:11:43.576Z,25.83
2023-11-14T14:14:15.343Z,25.80
2023-11-14T14:16:46.100Z,25.86
2023-11-14T14:19:19.609Z,25.83
2023-11-14T14:21:49.652Z,25.97
2023-11-14T14:24:20.325Z,26.02
2023-11-14T14:26:50.559Z,26.34
2023-11-14T14:29:20.950Z,26.53
2023-11-14T14:31:51.490Z,26.71
2023-11-14T14:34:21.718Z,26.53
2023-11-14T14:36:51.741Z,26.34
2023-11-14T14:39:23.593Z,26.03
2023-11-14T14:41:54.915Z,25.86
2023-11-14T14:44:27.149Z,25.74
2023-11-14T14:46:57.247Z,25.76
2023-11-14T14:49:27.657Z,25.78
2023-11-14T14:51:59.524Z,25.83
2023-11-14T14:54:31.261Z,26.04
2023-11-14T14:57:01.421Z,26.18
2023-11-14T14:59:32.546Z,26.43
2023-11-14T15:02:02.940Z,26.53
2023-11-14T15:04:33.291Z,26.69
2023-11-14T15:07:03.435Z,26.92
2023-11-14T15:09:34.376Z,27.26
2023-11-14T15:12:04.703Z,27.42
2023-11-14T15:14:41.456Z,27.56
2023-11-14T15:17:14.853Z,27.63
2023-11-14T15:19:45.963Z,27.57
2023-11-14T15:22:15.927Z,27.57
2023-11-14T15:24:46.145Z,27.51
2023-11-14T15:27:15.965Z,27.53
2023-11-14T15:29:47.734Z,27.48
2023-11-14T15:32:17.990Z,27.55
2023-11-14T15:34:48.227Z,27.14
2023-11-14T15:37:18.133Z,27.12
2023-11-14T15:39:48.475Z,27.10
2023-11-14T15:42:18.632Z,27.50
2023-11-14T15:44:49.897Z,27.57
2023-11-14T15:47:20.010Z,27.84
2023-11-14T15:49:50.220Z,27.67
2023-11-14T15:52:20.034Z,27.34
2023-11-14T15:54:50.245Z,27.21
2023-11-14T15:57:20.917Z,27.36
2023-11-14T15:59:51.641Z,27.51
2023-11-14T16:02:22.682Z,27.68
2023-11-14T16:04:53.505Z,27.97
2023-11-14T16:07:23.491Z,28.21
2023-11-14T16:09:53.985Z,27.90
2023-11-14T16:12:24.694Z,27.58
2023-11-14T16:14:55.043Z,27.34
2023-11-14T16:17:25.481Z,27.29
2023-11-14T16:19:55.886Z,26.90
2023-11-14T16:22:25.977Z,27.01
2023-11-14T16:24:56.260Z,26.79
2023-11-14T16:27:26.058Z,26.54
2023-11-14T16:29:56.297Z,26.49
2023-11-14T16:32:26.195Z,26.58
2023-11-14T16:34:56.439Z,26.45
2023-11-14T16:37:27.182Z,26.41
2023-11-14T16:39:58.015Z,26.41
2023-11-14T16:42:28.505Z,26.72
2023-11-14T16:44:58.703Z,26.92
2023-11-14T16:47:28.858Z,27.06
2023-11-14T16:49:59.210Z,27.20
2023-11-14T16:52:32.463Z,27.45
2023-11-14T16:55:05.997Z,27.58
2023-11-14T16:57:38.297Z,27.27
2023-11-14T17:00:10.074Z,27.01
2023-11-14T17:02:40.311Z,26.93
2023-11-14T17:05:11.895Z,27.00
2023-11-14T17:07:42.079Z,27.18
2023-11-14T17:10:12.652Z,27.26
2023-11-14T17:12:46.456Z,27.34
2023-11-14T17:15:18.948Z,27.49
2023-11-14T17:17:49.392Z,27.63
2023-11-14T17:20:19.847Z,27.71
2023-11-14T17:22:49.832Z,28.10
2023-11-14T17:25:20.114Z,28.44
2023-11-14T17:27:50.603Z,28.53
2023-11-14T17:30:21.080Z,28.29
2023-11-14T17:32:51.102Z,28.96
2023-11-14T17:35:23.793Z,29.33
2023-11-14T17:37:54.028Z,29.53
2023-11-14T17:40:24.312Z,29.68
2023-11-14T17:42:54.455Z,29.68
2023-11-14T17:45:24.795Z,29.65
2023-11-14T17:47:54.865Z,29.35
2023-11-14T17:50:25.349Z,29.44
2023-11-14T17:52:55.354Z,29.38
2023-11-14T17:55:25.572Z,29.42
2023-11-14T17:57:55.702Z,29.53
2023-11-14T18:00:26.040Z,29.42
2023-11-14T18:02:59.073Z,29.58
2023-11-14T18:05:30.260Z,29.78
2023-11-14T18:08:06.846Z,29.65
2023-11-14T18:10:37.812Z,29.60
2023-11-14T18:13:08.219Z,29.40
2023-11-14T18:15:38.808Z,29.27
2023-11-14T18:18:09.025Z,29.10
2023-11-14T18:20:40.453Z,28.92
2023-11-14T18:23:11.055Z,28.72
2023-11-14T18:25:41.268Z,28.57
2023-11-14T18:28:11.499Z,28.62
2023-11-14T18:30:42.293Z,28.42
2023-11-14T18:33:12.483Z,28.28
2023-11-14T18:35:45.790Z,28.19
2023-11-14T18:38:15.923Z,28.17
2023-11-14T18:40:46.154Z,27.89
2023-11-14T18:43:16.696Z,27.91
2023-11-14T18:45:47.038Z,28.00
2023-11-14T18:48:17.730Z,28.05
2023-11-14T18:50:49.579Z,28.10
2023-11-14T18:53:21.298Z,28.01
2023-11-14T18:55:52.704Z,27.92
2023-11-14T18:58:23.456Z,27.83
2023-11-14T19:01:01.536Z,27.79
2023-11-14T19:03:37.759Z,27.90
2023-11-14T19:06:10.465Z,27.94
2023-11-14T19:08:40.010Z,27.41
2023-11-14T19:11:10.479Z,27.61
2023-11-14T19:13:40.673Z,27.10
2023-11-14T19:16:12.343Z,26.93
2023-11-14T19:18:42.489Z,26.87
2023-11-14T19:23:48.829Z,27.11
2023-11-14T19:26:22.413Z,26.73
2023-11-14T19:28:53.241Z,26.39
2023-11-14T19:31:24.327Z,26.35
2023-11-14T19:33:54.821Z,26.14
2023-11-14T19:36:25.272Z,25.96
2023-11-14T19:38:55.287Z,26.05
2023-11-14T19:41:25.597Z,25.96
2023-11-14T19:43:55.606Z,25.70
2023-11-14T19:46:25.944Z,25.64
2023-11-14T19:48:57.074Z,25.72
2023-11-14T19:51:27.636Z,25.79
2023-11-14T19:53:57.895Z,25.93
2023-11-14T19:56:28.566Z,26.02
2023-11-14T19:59:05.878Z,25.99
2023-11-14T20:01:36.703Z,25.94
2023-11-14T20:04:07.298Z,26.10
2023-11-14T20:06:39.926Z,26.06
2023-11-14T20:09:09.914Z,26.03
2023-11-14T20:11:43.281Z,26.00
2023-11-14T20:14:13.877Z,25.74
2023-11-14T20:16:43.715Z,25.82
2023-11-14T20:19:14.282Z,25.82
2023-11-14T20:21:44.095Z,25.66
2023-11-14T20:24:14.501Z,25.50
2023-11-14T20:26:45.044Z,25.54
2023-11-14T20:29:15.745Z,25.48
2023-11-14T20:31:46.007Z,25.37
2023-11-14T20:34:15.975Z,25.16
2023-11-14T20:36:46.172Z,25.04
2023-11-14T20:39:20.061Z,25.18
2023-11-14T20:41:51.157Z,25.15
2023-11-14T20:44:22.245Z,25.14
2023-11-14T20:46:54.897Z,25.17
2023-11-14T20:49:25.495Z,25.19
2023-11-14T20:51:56.353Z,25.16
2023-11-14T20:54:26.548Z,25.00
2023-11-14T20:56:57.067Z,24.67
2023-11-14T20:59:27.418Z,24.74
2023-11-14T21:01:59.414Z,24.84
2023-11-14T21:04:29.480Z,24.78
2023-11-14T21:06:59.889Z,24.71
2023-11-14T21:09:29.855Z,24.63
2023-11-14T21:12:00.401Z,24.69
2023-11-14T21:14:30.630Z,24.65
2023-11-14T21:17:01.214Z,24.61
2023-11-14T21:19:31.195Z,24.43
2023-11-14T21:22:00.911Z,24.44
2023-11-14T21:24:33.277Z,24.41
2023-11-14T21:27:03.203Z,24.53
2023-11-14T21:29:33.679Z,24.45
2023-11-14T21:32:04.100Z,24.31
2023-11-14T21:34:34.188Z,24.18
2023-11-14T21:37:04.600Z,24.06
2023-11-14T21:39:34.770Z,24.00
2023-11-14T21:42:05.281Z,23.92
2023-11-14T21:44:35.471Z,23.68
2023-11-14T21:47:05.923Z,23.64
2023-11-14T21:49:42.491Z,23.58
2023-11-14T21:52:13.329Z,23.56
2023-11-14T21:54:43.304Z,23.44
2023-11-14T21:57:13.025Z,23.42
2023-11-14T21:59:43.454Z,23.26
2023-11-14T22:02:14.275Z,22.86
2023-11-14T22:04:45.958Z,22.86
2023-11-14T22:07:15.944Z,22.77
2023-11-14T22:09:46.497Z,22.75
2023-11-14T22:12:16.515Z,22.79
2023-11-14T22:14:47.295Z,22.73
2023-11-14T22:17:17.177Z,22.66
2023-11-14T22:19:47.976Z,22.58
2023-11-14T22:22:18.487Z,22.46
2023-11-14T22:24:48.996Z,22.35
2023-11-14T22:27:19.408Z,22.30
2023-11-14T22:29:49.642Z,22.29
2023-11-14T22:32:20.152Z,22.31
2023-11-14T22:34:50.188Z,22.25
2023-11-14T22:37:20.503Z,21.95
2023-11-14T22:39:50.636Z,22.02
2023-11-14T22:42:21.261Z,21.95
2023-11-14T22:44:51.510Z,21.84
2023-11-14T22:47:21.948Z,21.69
2023-11-14T22:49:53.058Z,21.55
2023-11-14T22:52:23.397Z,21.52
2023-11-14T22:54:53.480Z,21.52
2023-11-14T22:57:23.816Z,21.50
2023-11-14T22:59:54.059Z,21.42
2023-11-14T23:02:24.529Z,21.37
2023-11-14T23:04:56.020Z,21.25
2023-11-14T23:07:26.387Z,21.20
2023-11-14T23:09:56.856Z,21.15
2023-11-14T23:12:28.622Z,21.08
2023-11-14T23:14:59.006Z,21.04
2023-11-14T23:17:29.481Z,21.02
2023-11-14T23:19:59.619Z,21.04
2023-11-14T23:22:29.298Z,21.08
2023-11-14T23:25:00.085Z,21.16
2023-11-14T23:27:30.054Z,21.23
2023-11-14T23:30:00.431Z,21.30
2023-11-14T23:32:30.482Z,21.37
2023-11-14T23:35:00.875Z,21.43
2023-11-14T23:37:32.705Z,21.53
2023-11-14T23:40:05.802Z,21.57
2023-11-14T23:42:35.842Z,21.58
2023-11-14T23:45:08.851Z,21.63
2023-11-14T23:47:40.022Z,21.61
2023-11-14T23:50:11.056Z,21.67
2023-11-14T23:52:44.355Z,21.69
2023-11-14T23:55:14.824Z,21.66
2023-11-14T23:57:44.910Z,21.66
